Gerton, NC

12:33 AM EDT on Settembru 03, 2014 (GMT -0400)
Little Bearwallow MOUNTAIN | Change Station
CLOSE
Current Station
Personal Weather Stations
Location: Hendersonville, NC
Elevation: 2820 ft
Nearby Weather Stations

Elev 2820 ft 35.44 °N, 82.35 °W | Updated 1 minute ago

imsahhab
imsahhab
68.2 °F
Feels Like 68.2 °F
N
0.0
rih varjabbli rih from Nofs in-nhar il-bic
Gusts 0.0 mph

Illum
High -- | Low -- °F
--% Chance of Precip.
Yesterday
High -- | Low -- °F
Precip. -- in
7:02 AM 7:53 PM
First Quarter, 58% visible
pressjoni 30.06 in
vizibilita 10.0 mili
s imsahhab hafna 5000 ft
punt ta' nida 62 °F
umdita 82%
Rainfall 0.11 in
Snow Depth Not available.
UV 0 out of 12
Pollen 9.10 out of 12
Ozone Good
PM2.5 Good
Flu Activity Not available.
METAR KAVL 030354Z AUTO 34008KT 10SM -RA BKN050 20/18 A3015 RMK AO2 LTG DSNT E AND SE RAB41 SLP179 P0000 T02000178

More Conditions Fewer Conditions

pressjoni 30.06 in
vizibilita 10.0 mili
s imsahhab hafna 5000 ft
punt ta' nida 62 °F
umdita 82%
Rainfall 0.11 in
Snow Depth Not available.
UV 0 out of 12
Pollen 9.10 out of 12
Ozone Good
PM2.5 Good
Flu Activity Not available.
METAR KAVL 030354Z AUTO 34008KT 10SM -RA BKN050 20/18 A3015 RMK AO2 LTG DSNT E AND SE RAB41 SLP179 P0000 T02000178

More Conditions Fewer Conditions

10-Day Weather Forecast

Almanac

Astronomy

Sep. 03, 2014 Rise Set
Actual Time 7:02 AM EDT 7:53 PM EDT
Civil Twilight 6:37 AM EDT 8:19 PM EDT
Nautical Twilight 6:06 AM EDT 8:49 PM EDT
Astronomical Twilight 5:34 AM EDT 9:21 PM EDT
Moon 3:27 PM EDT 1:02 AM EDT
Length Of Visible Light 13h 42m
Length of Day
12h 50m
Tomorrow will be 2m 9s shorter.
First Quarter, 58% of the Moon is Illuminated
Illum
First Quarter
Sep 8
Full
Sep 15
Last Quarter
Sep 24
New
Oct 1
First Quarter

Yesterday's Extremes

State Highs State Lows

Community

WunderPhotos

Upload Photos

1,749,870 photos uploaded!

Nearby

Air Quality

  Air Quality AQ Index Pollutant
Yesterday Moderate
PM2.5
Yesterday Good
OZONE
Current Good
PM2.5
Current Good
OZONE
It-Tlieta Good
PM2.5
It-Tlieta Good
OZONE
L-Erbgha Good
PM2.5
L-Erbgha Good
OZONE
Il-Hamis Good
PM2.5
Il-Hamis Good
OZONE
Il-Gimgha Good
PM2.5
Il-Gimgha Good
OZONE

Snow Depth

Station Depth Elevation
No new snow has been reported.

Earthquake Activity

City Distance Mag. Time & Date
No recent earthquake activity has been reported nearby.
Minimum magnitude displayed is 2.5.

Coastal Water Temperatures

Post temperatura
No Stations Reporting

Nearby Weather Stations